Time;durP1;ratioP1;P1;durP2;ratioP2;P2;SDS_P1;SDS_P2;PMS_P1;PMS_P2;Temp;Humidity;BMP_temperature;BMP_pressure;BME280_temperature;BME280_humidity;BME280_pressure;Samples;Min_cycle;Max_cycle;Signal;HPM_P1;HPM_P2
2023/06/27 00:01:06;;;;;;;6.78;1.98;;;14.10;99.90;;;;;;5034523;28;20032;-75
2023/06/27 00:03:33;;;;;;;4.03;1.38;;;14.20;99.90;;;;;;5033281;28;20049;-74
2023/06/27 00:06:04;;;;;;;7.28;1.80;;;14.20;99.90;;;;;;5034063;28;20036;-75
2023/06/27 00:08:33;;;;;;;7.68;1.92;;;14.20;99.90;;;;;;5035302;28;20052;-75
2023/06/27 00:10:59;;;;;;;9.15;1.50;;;14.20;99.90;;;;;;5035843;28;20039;-75
2023/06/27 00:13:25;;;;;;;10.70;2.00;;;14.20;99.90;;;;;;5033324;28;20033;-75
2023/06/27 00:15:52;;;;;;;6.85;1.60;;;14.10;99.90;;;;;;5037460;28;20110;-75
2023/06/27 00:18:22;;;;;;;4.70;1.50;;;14.10;99.90;;;;;;5038736;28;20388;-75
2023/06/27 00:20:49;;;;;;;4.28;1.40;;;14.10;99.90;;;;;;5035817;28;20029;-75
2023/06/27 00:23:24;;;;;;;4.70;1.52;;;14.10;99.90;;;;;;5030934;28;20029;-75
2023/06/27 00:25:50;;;;;;;2.92;1.30;;;14.00;99.90;;;;;;5035707;28;20029;-75
2023/06/27 00:28:16;;;;;;;5.18;1.40;;;14.00;99.90;;;;;;5034689;28;20051;-75
2023/06/27 00:30:41;;;;;;;3.60;1.15;;;13.90;99.90;;;;;;5020487;28;20534;-76
2023/06/27 00:33:11;;;;;;;2.80;1.30;;;13.80;99.90;;;;;;5038511;28;20070;-75
2023/06/27 00:35:38;;;;;;;5.53;1.50;;;13.80;99.90;;;;;;5034479;28;20048;-75
2023/06/27 00:38:03;;;;;;;4.07;1.30;;;13.80;99.90;;;;;;5035343;28;20430;-74
2023/06/27 00:40:29;;;;;;;7.40;1.60;;;13.80;99.90;;;;;;5034388;28;20028;-75
2023/06/27 00:42:55;;;;;;;6.20;1.50;;;13.80;99.90;;;;;;5024065;28;20078;-75
2023/06/27 00:45:23;;;;;;;6.05;1.50;;;13.70;99.90;;;;;;5035677;28;20080;-75
2023/06/27 00:47:50;;;;;;;7.07;1.90;;;13.70;99.90;;;;;;5037930;28;20051;-75
2023/06/27 00:50:16;;;;;;;6.45;1.35;;;13.70;99.90;;;;;;5033116;28;20037;-75
2023/06/27 00:52:42;;;;;;;4.45;1.30;;;13.80;99.90;;;;;;5037711;28;20060;-75
2023/06/27 00:55:09;;;;;;;7.72;1.52;;;13.80;99.90;;;;;;5036195;28;20029;-76
2023/06/27 00:57:35;;;;;;;4.18;1.40;;;13.90;99.90;;;;;;5038220;28;20036;-75
2023/06/27 01:00:00;;;;;;;2.75;1.20;;;13.90;99.90;;;;;;5037204;28;20021;-75
2023/06/27 01:02:26;;;;;;;5.18;1.38;;;14.00;99.90;;;;;;5034123;28;20061;-75
2023/06/27 01:04:53;;;;;;;5.07;1.58;;;14.00;99.90;;;;;;5034872;28;20521;-75
2023/06/27 01:07:39;;;;;;;5.25;1.40;;;14.00;99.90;;;;;;5034250;28;20062;-75
2023/06/27 01:10:26;;;;;;;4.53;1.33;;;14.10;99.90;;;;;;5028950;28;20157;-74
2023/06/27 01:13:01;;;;;;;5.05;1.48;;;14.10;99.90;;;;;;5033587;28;20345;-74
2023/06/27 01:15:27;;;;;;;3.80;1.00;;;14.10;99.90;;;;;;5033845;28;20365;-75
2023/06/27 01:17:53;;;;;;;3.78;1.30;;;14.10;99.90;;;;;;5030410;28;20055;-76
2023/06/27 01:20:19;;;;;;;3.28;1.30;;;14.20;99.90;;;;;;5036079;28;20024;-74
2023/06/27 01:22:53;;;;;;;6.78;1.45;;;14.10;99.90;;;;;;5033449;28;20566;-75
2023/06/27 01:25:19;;;;;;;8.27;1.58;;;14.10;99.90;;;;;;5030624;28;20032;-74
2023/06/27 01:27:44;;;;;;;4.88;1.40;;;14.10;99.90;;;;;;5030892;28;20353;-75
2023/06/27 01:30:10;;;;;;;3.40;1.23;;;14.10;99.90;;;;;;5026272;28;20063;-75
2023/06/27 01:32:56;;;;;;;3.72;1.15;;;14.00;99.90;;;;;;5036221;28;20041;-75
2023/06/27 01:35:43;;;;;;;3.78;1.20;;;13.90;99.90;;;;;;5033671;28;20025;-75
2023/06/27 01:38:13;;;;;;;4.03;1.30;;;13.80;99.90;;;;;;5034145;28;20110;-75
2023/06/27 01:40:42;;;;;;;8.07;1.60;;;13.80;99.90;;;;;;5034608;28;20414;-75
2023/06/27 01:43:12;;;;;;;4.30;1.30;;;13.70;99.90;;;;;;5024845;28;20374;-75
2023/06/27 01:45:39;;;;;;;4.25;1.35;;;13.60;99.90;;;;;;5031323;28;20036;-74
2023/06/27 01:48:06;;;;;;;4.90;1.40;;;13.50;99.90;;;;;;5031514;28;20116;-74
2023/06/27 01:50:32;;;;;;;4.05;1.30;;;13.40;99.90;;;;;;5031848;28;20029;-75
2023/06/27 01:52:58;;;;;;;6.75;1.48;;;13.40;99.90;;;;;;5031784;28;20119;-75
2023/06/27 01:55:23;;;;;;;4.95;1.20;;;13.30;99.90;;;;;;5030342;28;20029;-75
2023/06/27 01:57:50;;;;;;;4.28;1.85;;;13.30;99.90;;;;;;5029271;28;20075;-74
2023/06/27 02:00:17;;;;;;;3.90;1.40;;;13.20;99.90;;;;;;5029644;28;20031;-75
2023/06/27 02:02:43;;;;;;;2.70;1.10;;;13.20;99.90;;;;;;5028202;28;20474;-75
2023/06/27 02:05:09;;;;;;;3.17;1.20;;;13.30;99.90;;;;;;5031252;28;20064;-74
2023/06/27 02:07:35;;;;;;;5.25;1.67;;;13.20;99.90;;;;;;5029055;28;20171;-75
2023/06/27 02:10:00;;;;;;;6.40;1.67;;;13.10;99.90;;;;;;5030136;28;20021;-74
2023/06/27 02:12:26;;;;;;;4.68;1.40;;;13.10;99.90;;;;;;5029940;28;20025;-75
2023/06/27 02:14:52;;;;;;;8.75;1.70;;;13.10;99.90;;;;;;5026951;28;20087;-75
2023/06/27 02:17:17;;;;;;;4.38;1.42;;;13.20;99.90;;;;;;5028458;28;20480;-75
2023/06/27 02:19:43;;;;;;;5.10;1.55;;;13.20;99.90;;;;;;5027313;28;20091;-74
2023/06/27 02:22:09;;;;;;;5.43;1.58;;;13.30;99.90;;;;;;5028995;28;20116;-74
2023/06/27 02:24:34;;;;;;;6.28;1.33;;;13.40;99.90;;;;;;5027004;28;20036;-74
2023/06/27 02:27:00;;;;;;;6.70;1.73;;;13.50;99.90;;;;;;5032859;28;20134;-75
2023/06/27 02:29:26;;;;;;;4.10;1.30;;;13.60;99.90;;;;;;5027761;28;20256;-75
2023/06/27 02:31:51;;;;;;;4.60;1.20;;;13.70;99.90;;;;;;5032610;28;20108;-75
2023/06/27 02:34:17;;;;;;;4.93;1.30;;;13.80;99.90;;;;;;5019896;28;20255;-75
2023/06/27 02:36:42;;;;;;;8.65;1.52;;;13.80;99.90;;;;;;5027885;28;20033;-75
2023/06/27 02:39:08;;;;;;;4.05;1.23;;;13.90;99.90;;;;;;5033840;28;20032;-75
2023/06/27 02:41:34;;;;;;;4.25;1.38;;;13.90;99.90;;;;;;5035309;28;20289;-75
2023/06/27 02:43:59;;;;;;;2.75;1.15;;;14.00;99.90;;;;;;5031819;28;20044;-75
2023/06/27 02:46:25;;;;;;;6.80;1.60;;;14.00;99.90;;;;;;5036278;28;20032;-74
2023/06/27 02:48:50;;;;;;;5.65;1.38;;;14.10;99.90;;;;;;5039259;28;20059;-75
2023/06/27 02:51:16;;;;;;;5.05;1.40;;;14.10;99.90;;;;;;5049176;28;20025;-75
2023/06/27 02:53:42;;;;;;;6.03;1.50;;;14.20;99.90;;;;;;5030238;28;20063;-75
2023/06/27 02:56:07;;;;;;;4.13;1.55;;;14.20;99.90;;;;;;5036197;28;20040;-75
2023/06/27 02:58:33;;;;;;;4.72;1.27;;;14.20;99.90;;;;;;5035380;28;20033;-74
2023/06/27 03:01:00;;;;;;;4.72;1.60;;;14.20;99.90;;;;;;5038381;28;20035;-75
2023/06/27 03:03:26;;;;;;;7.20;1.30;;;14.30;99.90;;;;;;5030892;28;20147;-74
2023/06/27 03:05:51;;;;;;;4.05;1.50;;;14.30;99.90;;;;;;5039433;28;20025;-75
2023/06/27 03:08:17;;;;;;;3.42;1.55;;;14.40;99.90;;;;;;5036043;28;20060;-75
2023/06/27 03:10:43;;;;;;;4.50;1.63;;;14.40;99.90;;;;;;5036933;28;20033;-74
2023/06/27 03:13:08;;;;;;;4.15;1.48;;;14.40;99.90;;;;;;5035251;28;20258;-75
2023/06/27 03:15:34;;;;;;;12.45;2.20;;;14.40;99.90;;;;;;5035994;28;20430;-75
2023/06/27 03:18:00;;;;;;;4.85;1.30;;;14.40;99.90;;;;;;5032681;28;20033;-75
2023/06/27 03:20:25;;;;;;;5.53;1.52;;;14.40;99.90;;;;;;5029592;28;20120;-75
2023/06/27 03:22:51;;;;;;;7.50;2.03;;;14.30;99.90;;;;;;5037785;28;20025;-75
2023/06/27 03:25:17;;;;;;;5.50;1.65;;;14.30;99.90;;;;;;5034905;28;20037;-75
2023/06/27 03:27:43;;;;;;;3.67;1.42;;;14.30;99.90;;;;;;5030838;28;20041;-75
2023/06/27 03:30:10;;;;;;;5.40;1.45;;;14.30;99.90;;;;;;5034496;28;20039;-74
2023/06/27 03:32:35;;;;;;;5.20;1.40;;;14.30;99.90;;;;;;5035818;28;20052;-75
2023/06/27 03:35:01;;;;;;;8.00;1.70;;;14.30;99.90;;;;;;5039582;28;20021;-75
2023/06/27 03:37:27;;;;;;;5.10;1.30;;;14.30;99.90;;;;;;5037945;28;20037;-75
2023/06/27 03:39:53;;;;;;;4.03;1.50;;;14.30;99.90;;;;;;5038946;28;20476;-74
2023/06/27 03:42:19;;;;;;;3.70;1.42;;;14.20;99.90;;;;;;5036132;28;20124;-73
2023/06/27 03:44:44;;;;;;;4.07;1.58;;;14.20;99.90;;;;;;5035835;28;20067;-75
2023/06/27 03:47:10;;;;;;;9.68;1.67;;;14.20;99.90;;;;;;5038868;28;20112;-75
2023/06/27 03:49:36;;;;;;;5.00;1.40;;;14.20;99.90;;;;;;5038807;28;20049;-75
2023/06/27 03:52:01;;;;;;;4.53;1.65;;;14.20;99.90;;;;;;5036647;28;20423;-75
2023/06/27 03:54:27;;;;;;;4.55;1.25;;;14.10;99.90;;;;;;5033954;28;20052;-75
2023/06/27 03:56:53;;;;;;;6.82;1.63;;;14.20;99.90;;;;;;5037853;28;20083;-75
2023/06/27 03:59:18;;;;;;;4.80;1.33;;;14.20;99.90;;;;;;5031254;28;20072;-74
2023/06/27 04:01:44;;;;;;;3.05;1.27;;;14.20;99.90;;;;;;5037184;28;20032;-74
2023/06/27 04:04:10;;;;;;;4.13;1.20;;;14.20;99.90;;;;;;5034628;28;20057;-74
2023/06/27 04:06:35;;;;;;;6.18;1.30;;;14.20;99.90;;;;;;5053677;28;20641;-75
2023/06/27 04:09:04;;;;;;;5.28;1.38;;;14.30;99.90;;;;;;5039720;28;20048;-74
2023/06/27 04:11:31;;;;;;;4.63;1.40;;;14.40;99.90;;;;;;5039354;28;20069;-75
2023/06/27 04:13:59;;;;;;;5.13;1.55;;;14.40;99.90;;;;;;5032144;28;20029;-75
2023/06/27 04:16:25;;;;;;;6.72;1.50;;;14.40;99.90;;;;;;5036750;28;20116;-74
2023/06/27 04:18:50;;;;;;;8.38;1.50;;;14.50;99.90;;;;;;5018601;28;20037;-74
2023/06/27 04:21:16;;;;;;;6.43;1.45;;;14.60;99.90;;;;;;5034461;28;20094;-74
2023/06/27 04:23:41;;;;;;;6.60;1.38;;;14.60;99.90;;;;;;5044060;28;20231;-75
2023/06/27 04:26:07;;;;;;;9.13;1.45;;;14.60;99.90;;;;;;5027146;28;20033;-75
2023/06/27 04:28:36;;;;;;;5.43;1.40;;;14.70;99.90;;;;;;5034602;28;20314;-75
2023/06/27 04:31:02;;;;;;;4.90;1.58;;;14.70;99.90;;;;;;5033730;28;20365;-75
2023/06/27 04:33:29;;;;;;;8.85;1.60;;;14.80;99.90;;;;;;5033077;28;20068;-75
2023/06/27 04:36:00;;;;;;;7.68;1.60;;;14.80;99.90;;;;;;5030258;28;20345;-75
2023/06/27 04:38:27;;;;;;;6.60;1.65;;;14.90;99.90;;;;;;5031413;28;20381;-75
2023/06/27 04:40:52;;;;;;;6.22;1.60;;;14.90;99.90;;;;;;5034270;28;20047;-75
2023/06/27 04:43:18;;;;;;;3.55;1.20;;;14.90;99.90;;;;;;5035078;28;20032;-75
2023/06/27 04:45:44;;;;;;;6.10;1.58;;;14.90;99.90;;;;;;5038327;28;20036;-75
2023/06/27 04:48:09;;;;;;;4.40;1.50;;;14.90;99.90;;;;;;5042239;28;20184;-75
2023/06/27 04:50:35;;;;;;;4.05;1.55;;;14.90;99.90;;;;;;5040283;28;20029;-75
2023/06/27 04:53:03;;;;;;;5.60;1.60;;;14.90;99.90;;;;;;5034236;28;20103;-75
2023/06/27 04:55:29;;;;;;;8.88;1.88;;;15.00;99.90;;;;;;5034346;28;20286;-75
2023/06/27 04:57:55;;;;;;;6.22;1.40;;;15.00;99.90;;;;;;5034852;28;20468;-75
2023/06/27 05:00:21;;;;;;;7.07;1.80;;;15.10;99.90;;;;;;5032431;28;20065;-75
2023/06/27 05:02:46;;;;;;;6.82;1.75;;;15.10;99.90;;;;;;5032487;28;20060;-74
2023/06/27 05:05:12;;;;;;;4.90;1.40;;;15.20;99.90;;;;;;5046125;23;20046;-83
2023/06/27 05:07:38;;;;;;;6.85;1.70;;;15.30;99.90;;;;;;5033628;28;20626;-82
2023/06/27 05:10:03;;;;;;;4.25;1.52;;;15.30;99.90;;;;;;5040129;28;20041;-83
2023/06/27 05:12:29;;;;;;;3.55;1.45;;;15.50;99.90;;;;;;5041661;28;20033;-82
2023/06/27 05:14:55;;;;;;;7.68;1.85;;;15.60;99.90;;;;;;5043152;28;20078;-83
2023/06/27 05:17:21;;;;;;;4.22;1.77;;;15.70;99.90;;;;;;5043234;28;20198;-82
2023/06/27 05:19:46;;;;;;;6.10;1.88;;;15.80;99.90;;;;;;5057437;28;20033;-83
2023/06/27 05:22:13;;;;;;;6.25;1.92;;;16.00;99.90;;;;;;5037032;28;20127;-83
2023/06/27 05:24:38;;;;;;;6.13;1.77;;;16.10;99.90;;;;;;5037522;28;20028;-83
2023/06/27 05:27:04;;;;;;;8.10;1.50;;;16.30;99.90;;;;;;5041780;28;20080;-83
2023/06/27 05:29:30;;;;;;;6.78;2.03;;;16.40;99.90;;;;;;5045014;28;20895;-83
2023/06/27 05:31:55;;;;;;;6.15;1.95;;;16.50;99.90;;;;;;5051543;28;20030;-83
2023/06/27 05:34:21;;;;;;;6.55;2.65;;;16.60;99.90;;;;;;5041056;28;20506;-84
2023/06/27 05:36:46;;;;;;;7.93;2.05;;;16.60;99.90;;;;;;5042276;28;20024;-83
2023/06/27 05:39:12;;;;;;;4.97;2.28;;;16.70;99.90;;;;;;5042036;28;20760;-82
2023/06/27 05:41:38;;;;;;;8.48;2.10;;;16.80;99.90;;;;;;5056691;28;20029;-83
2023/06/27 05:44:03;;;;;;;5.82;1.90;;;16.90;99.90;;;;;;5041317;28;20404;-83
2023/06/27 05:46:34;;;;;;;6.63;1.80;;;17.00;99.90;;;;;;5057946;28;20025;-83
2023/06/27 05:49:00;;;;;;;3.17;1.38;;;17.00;99.90;;;;;;5058544;28;20036;-82
2023/06/27 05:51:25;;;;;;;7.55;1.98;;;17.10;99.90;;;;;;5041405;28;20040;-84
2023/06/27 05:53:51;;;;;;;4.03;1.63;;;17.10;99.90;;;;;;5058257;28;20388;-83
2023/06/27 05:56:17;;;;;;;5.22;1.70;;;17.20;99.90;;;;;;5038071;28;20029;-83
2023/06/27 05:58:42;;;;;;;6.38;1.52;;;17.30;99.90;;;;;;5038886;28;20152;-83
2023/06/27 06:01:08;;;;;;;5.93;1.33;;;17.30;99.90;;;;;;5031981;28;20488;-83
2023/06/27 06:03:34;;;;;;;17.20;4.75;;;17.40;99.90;;;;;;5033486;23;20045;-82
2023/06/27 06:05:59;;;;;;;7.10;1.35;;;17.40;99.90;;;;;;5022891;28;20037;-82
2023/06/27 06:08:25;;;;;;;51.13;29.95;;;17.50;99.90;;;;;;5031779;28;20033;-80
2023/06/27 06:10:50;;;;;;;9.50;4.53;;;17.60;99.90;;;;;;5035205;28;20109;-83
2023/06/27 06:13:16;;;;;;;10.02;3.67;;;17.70;99.90;;;;;;5029484;28;20658;-80
2023/06/27 06:15:42;;;;;;;7.18;2.47;;;17.90;99.90;;;;;;5040211;28;20774;-80
2023/06/27 06:18:07;;;;;;;6.10;2.25;;;18.20;99.90;;;;;;5042081;28;20037;-80
2023/06/27 06:20:33;;;;;;;6.40;2.00;;;18.30;99.90;;;;;;5026485;28;20025;-80
2023/06/27 06:22:59;;;;;;;6.40;1.92;;;18.50;99.90;;;;;;5035477;28;20484;-80
2023/06/27 06:25:26;;;;;;;18.42;10.10;;;18.70;99.90;;;;;;5038709;28;20043;-80
2023/06/27 06:27:52;;;;;;;11.43;2.80;;;19.00;99.90;;;;;;5039058;28;20744;-81
2023/06/27 06:30:18;;;;;;;12.20;1.83;;;19.20;99.90;;;;;;5037965;28;20024;-83
2023/06/27 06:32:43;;;;;;;7.53;1.73;;;19.50;99.90;;;;;;5034340;28;20041;-80
2023/06/27 06:35:09;;;;;;;10.18;2.10;;;19.60;99.90;;;;;;5037284;28;20075;-80
2023/06/27 06:37:36;;;;;;;6.43;1.70;;;19.80;99.90;;;;;;5035163;28;20090;-81
2023/06/27 06:40:02;;;;;;;6.90;2.17;;;20.00;99.90;;;;;;5029053;28;20455;-80
2023/06/27 06:42:28;;;;;;;43.22;24.50;;;20.20;99.90;;;;;;5037745;28;20151;-80
2023/06/27 06:44:53;;;;;;;8.38;1.90;;;20.40;99.90;;;;;;5039824;28;20055;-80
2023/06/27 06:47:19;;;;;;;10.90;1.80;;;20.40;99.90;;;;;;5032269;28;20036;-79
2023/06/27 06:49:44;;;;;;;8.82;1.73;;;20.50;99.90;;;;;;5041119;28;20036;-80
2023/06/27 06:52:10;;;;;;;9.02;1.67;;;20.60;99.90;;;;;;5045011;28;20427;-82
2023/06/27 06:54:37;;;;;;;4.07;1.52;;;20.70;99.90;;;;;;5041582;28;20029;-82
2023/06/27 06:57:03;;;;;;;35.25;22.48;;;20.80;99.90;;;;;;5039568;28;20024;-82
2023/06/27 06:59:29;;;;;;;6.35;2.00;;;20.90;99.90;;;;;;5043393;28;20033;-82
2023/06/27 07:01:54;;;;;;;9.68;1.63;;;20.90;99.90;;;;;;5042817;28;20036;-81
2023/06/27 07:04:20;;;;;;;11.32;1.90;;;20.70;99.90;;;;;;5041866;28;20061;-82
2023/06/27 07:06:48;;;;;;;7.22;2.05;;;20.90;99.90;;;;;;5042172;28;20444;-82
2023/06/27 07:09:14;;;;;;;6.57;2.00;;;21.10;99.90;;;;;;5040261;28;20410;-81
2023/06/27 07:11:40;;;;;;;10.55;1.90;;;21.30;99.90;;;;;;5043830;28;20104;-82
2023/06/27 07:14:05;;;;;;;9.65;2.15;;;21.60;99.90;;;;;;5042999;28;20029;-82
2023/06/27 07:16:31;;;;;;;6.90;1.67;;;21.90;99.90;;;;;;5044235;28;20474;-82
2023/06/27 07:18:56;;;;;;;5.85;1.80;;;22.20;99.90;;;;;;5031410;28;20250;-80
2023/06/27 07:21:22;;;;;;;7.38;1.80;;;22.30;99.90;;;;;;5043593;28;20029;-81
2023/06/27 07:23:48;;;;;;;8.32;1.75;;;22.30;99.90;;;;;;5039773;28;20401;-82
2023/06/27 07:26:13;;;;;;;8.43;1.80;;;22.30;99.90;;;;;;5034316;28;20033;-81
2023/06/27 07:28:39;;;;;;;10.30;2.17;;;22.60;99.90;;;;;;5028251;28;20045;-81
2023/06/27 07:31:04;;;;;;;6.05;1.52;;;22.90;99.90;;;;;;5032438;28;20021;-81
2023/06/27 07:33:30;;;;;;;9.30;1.77;;;23.30;99.90;;;;;;5031216;28;20041;-82
2023/06/27 07:36:19;;;;;;;8.73;2.08;;;23.60;99.90;;;;;;5034321;28;20036;-82
2023/06/27 07:38:45;;;;;;;6.45;1.70;;;23.90;99.90;;;;;;5024378;28;20024;-79
2023/06/27 07:41:15;;;;;;;8.40;1.85;;;24.30;99.90;;;;;;5019163;28;20039;-82
2023/06/27 07:43:40;;;;;;;6.70;1.70;;;25.00;99.90;;;;;;5027057;28;20083;-82
2023/06/27 07:46:06;;;;;;;6.30;1.77;;;25.90;98.80;;;;;;5025326;28;20094;-82
2023/06/27 07:48:31;;;;;;;7.78;1.83;;;27.10;96.30;;;;;;5027940;28;20036;-82
2023/06/27 07:50:57;;;;;;;6.13;1.85;;;28.40;92.50;;;;;;5027408;28;20047;-82
2023/06/27 07:53:51;;;;;;;6.38;1.63;;;29.70;88.20;;;;;;5032982;28;20032;-81
2023/06/27 07:56:16;;;;;;;5.53;1.52;;;31.00;69.70;;;;;;5026761;28;20033;-80
2023/06/27 07:58:44;;;;;;;8.30;2.10;;;32.20;64.10;;;;;;5027752;28;20025;-79
2023/06/27 08:01:10;;;;;;;8.38;1.58;;;32.80;59.40;;;;;;5028172;28;20449;-78
2023/06/27 08:03:36;;;;;;;5.47;1.55;;;33.60;54.20;;;;;;5034002;28;20118;-81
2023/06/27 08:06:05;;;;;;;6.63;1.63;;;34.30;52.10;;;;;;5035363;28;20495;-81
2023/06/27 08:08:31;;;;;;;5.57;1.70;;;34.50;50.70;;;;;;5028160;28;20041;-79
2023/06/27 08:10:57;;;;;;;7.22;1.50;;;34.70;48.90;;;;;;5043546;28;20029;-80
2023/06/27 08:13:23;;;;;;;7.63;1.35;;;35.10;49.60;;;;;;5046126;28;20033;-81
2023/06/27 08:15:49;;;;;;;4.47;1.27;;;35.80;47.50;;;;;;5040525;28;20032;-81
2023/06/27 08:18:14;;;;;;;4.97;1.50;;;36.80;45.10;;;;;;5045256;28;20163;-80
2023/06/27 08:20:40;;;;;;;4.95;1.30;;;38.10;42.60;;;;;;5045901;28;20033;-81
2023/06/27 08:23:06;;;;;;;5.68;1.48;;;39.50;40.80;;;;;;5040593;28;20033;-82
2023/06/27 08:25:32;;;;;;;5.93;1.52;;;39.50;37.30;;;;;;5041078;28;20048;-81
2023/06/27 08:27:58;;;;;;;5.35;1.40;;;38.60;37.70;;;;;;5039062;28;20077;-82
2023/06/27 08:30:26;;;;;;;5.22;1.70;;;37.00;39.20;;;;;;5041040;28;20518;-81
2023/06/27 08:32:54;;;;;;;5.53;1.45;;;35.70;40.10;;;;;;5028585;28;20029;-81
2023/06/27 08:35:20;;;;;;;5.35;1.77;;;35.50;41.60;;;;;;5033147;28;20094;-81
2023/06/27 08:37:46;;;;;;;5.95;1.38;;;36.60;41.90;;;;;;5037485;28;20067;-83
2023/06/27 08:40:22;;;;;;;4.63;1.35;;;37.00;39.50;;;;;;5041727;28;20380;-81
2023/06/27 08:42:48;;;;;;;5.28;1.67;;;37.20;39.00;;;;;;5041180;28;20025;-81
2023/06/27 08:45:13;;;;;;;4.15;1.50;;;38.10;38.60;;;;;;5033881;28;20174;-81
2023/06/27 08:47:42;;;;;;;7.65;1.45;;;38.70;37.70;;;;;;5042062;28;20532;-81
2023/06/27 08:50:11;;;;;;;6.43;1.60;;;39.60;37.10;;;;;;5043322;28;20033;-81
2023/06/27 08:52:43;;;;;;;4.70;1.60;;;39.80;36.70;;;;;;5040529;28;20040;-81
2023/06/27 08:55:22;;;;;;;6.60;1.40;;;39.50;35.60;;;;;;5043882;28;20574;-80
2023/06/27 08:57:48;;;;;;;4.57;1.30;;;38.40;35.90;;;;;;5043836;28;20131;-80
2023/06/27 09:00:20;;;;;;;4.90;1.50;;;37.30;37.70;;;;;;5044111;28;20166;-81
2023/06/27 09:02:47;;;;;;;8.35;1.75;;;37.00;36.80;;;;;;5043289;28;20119;-80
2023/06/27 09:05:13;;;;;;;5.30;1.13;;;36.90;38.00;;;;;;5036603;28;20060;-80
2023/06/27 09:07:39;;;;;;;4.80;1.48;;;36.00;40.20;;;;;;5023564;28;20037;-80
2023/06/27 09:10:05;;;;;;;6.30;1.65;;;35.30;40.40;;;;;;5025111;28;20389;-81
2023/06/27 09:12:32;;;;;;;3.40;1.30;;;34.60;40.90;;;;;;5035442;28;20040;-80
2023/06/27 09:14:58;;;;;;;4.43;0.98;;;34.00;42.70;;;;;;5044893;28;20033;-81
2023/06/27 09:17:24;;;;;;;4.82;1.40;;;33.50;43.00;;;;;;5045268;28;20033;-80
2023/06/27 09:19:49;;;;;;;6.47;1.55;;;33.00;43.40;;;;;;5043236;28;20029;-81
2023/06/27 09:22:17;;;;;;;6.90;1.25;;;32.10;43.10;;;;;;5025465;28;20093;-80
2023/06/27 09:24:42;;;;;;;4.22;1.33;;;31.80;44.80;;;;;;5025020;28;20029;-81
2023/06/27 09:27:31;;;;;;;5.40;1.33;;;31.60;45.80;;;;;;5023605;28;20495;-81
2023/06/27 09:30:01;;;;;;;4.57;1.40;;;31.60;46.20;;;;;;5025283;28;20044;-80
2023/06/27 09:32:27;;;;;;;6.10;1.38;;;31.40;45.80;;;;;;5025402;28;20025;-81
2023/06/27 09:34:52;;;;;;;6.30;1.45;;;31.00;46.20;;;;;;5025131;28;20061;-81
2023/06/27 09:37:27;;;;;;;6.15;1.65;;;31.50;49.40;;;;;;5025574;28;20029;-81
2023/06/27 09:39:54;;;;;;;2.60;0.93;;;31.80;46.10;;;;;;5035014;28;20072;-82
2023/06/27 09:42:19;;;;;;;6.22;1.38;;;32.10;48.10;;;;;;5045026;28;20059;-82
2023/06/27 09:44:45;;;;;;;4.22;1.33;;;33.30;46.50;;;;;;5041181;28;20100;-81
2023/06/27 09:47:11;;;;;;;5.28;1.27;;;35.50;43.80;;;;;;5029622;28;20025;-81
2023/06/27 09:49:41;;;;;;;6.28;1.35;;;36.90;41.20;;;;;;5028832;28;20080;-81
2023/06/27 09:52:08;;;;;;;5.53;1.30;;;37.90;37.80;;;;;;5029104;28;20025;-81
2023/06/27 09:54:41;;;;;;;3.90;1.00;;;37.60;36.70;;;;;;5043800;28;20515;-81
2023/06/27 09:57:12;;;;;;;6.20;1.50;;;36.80;36.20;;;;;;5029392;28;20488;-81
2023/06/27 09:59:38;;;;;;;3.92;1.30;;;35.70;36.70;;;;;;5029591;28;20017;-81
2023/06/27 10:02:03;;;;;;;5.82;1.25;;;35.00;39.40;;;;;;5028394;28;20033;-81
2023/06/27 10:04:29;;;;;;;4.88;1.10;;;34.90;41.70;;;;;;5046928;28;20049;-81
2023/06/27 10:06:55;;;;;;;4.22;1.10;;;35.00;38.10;;;;;;5063769;28;20037;-81
2023/06/27 10:09:21;;;;;;;5.07;1.25;;;36.60;38.40;;;;;;5046943;28;20084;-81
2023/06/27 10:11:47;;;;;;;7.95;1.27;;;37.80;37.50;;;;;;5048425;28;20028;-81
2023/06/27 10:14:14;;;;;;;5.78;1.30;;;39.10;39.00;;;;;;5048453;28;20369;-81
2023/06/27 10:16:39;;;;;;;3.63;1.15;;;40.90;32.90;;;;;;5046943;28;20029;-80
2023/06/27 10:19:05;;;;;;;3.75;1.05;;;41.20;33.50;;;;;;5063822;28;20031;-83
2023/06/27 10:21:32;;;;;;;6.68;1.60;;;42.00;34.90;;;;;;5064026;28;20124;-81
2023/06/27 10:24:00;;;;;;;5.95;1.30;;;40.80;33.00;;;;;;5047265;28;20025;-83
2023/06/27 10:26:26;;;;;;;4.28;1.25;;;39.00;35.50;;;;;;5048716;28;20517;-82
2023/06/27 10:28:52;;;;;;;3.28;1.20;;;39.40;33.70;;;;;;5048328;28;20041;-81
2023/06/27 10:31:49;;;;;;;4.18;1.20;;;40.50;31.10;;;;;;5046860;28;20106;-82
2023/06/27 10:34:24;;;;;;;3.53;0.95;;;41.50;32.60;;;;;;5046551;28;20120;-82
2023/06/27 10:37:01;;;;;;;5.30;1.10;;;42.70;31.60;;;;;;5048335;28;20033;-81
2023/06/27 10:39:31;;;;;;;4.35;1.10;;;43.10;31.70;;;;;;5044303;28;20491;-83
2023/06/27 10:42:20;;;;;;;3.00;1.10;;;43.30;32.00;;;;;;5046135;28;20667;-81
2023/06/27 10:45:10;;;;;;;3.63;1.10;;;42.70;29.30;;;;;;5042159;28;20044;-82
2023/06/27 10:47:38;;;;;;;4.93;1.10;;;42.00;30.60;;;;;;5048108;28;20041;-81
2023/06/27 10:50:07;;;;;;;4.07;0.90;;;40.90;30.10;;;;;;5044959;28;20056;-80
2023/06/27 10:52:33;;;;;;;4.47;1.00;;;38.70;32.40;;;;;;5043725;28;20499;-82
2023/06/27 10:55:14;;;;;;;6.15;1.40;;;36.00;36.60;;;;;;5028462;28;20116;-81
2023/06/27 10:57:45;;;;;;;4.60;1.25;;;34.00;41.10;;;;;;5031069;28;20036;-81
2023/06/27 11:00:15;;;;;;;6.75;1.55;;;32.90;43.90;;;;;;5038936;28;20047;-81
2023/06/27 11:02:45;;;;;;;6.90;1.60;;;32.20;44.10;;;;;;5027549;28;20901;-82
2023/06/27 11:05:16;;;;;;;5.28;1.63;;;32.90;47.90;;;;;;5035488;28;20106;-82
2023/06/27 11:08:02;;;;;;;6.32;1.60;;;32.70;43.70;;;;;;5047571;28;20044;-81
2023/06/27 11:10:29;;;;;;;7.10;1.70;;;31.80;46.20;;;;;;5048395;28;20036;-81
2023/06/27 11:13:13;;;;;;;7.15;1.63;;;30.70;46.00;;;;;;5047835;28;20020;-79
2023/06/27 11:15:39;;;;;;;9.15;1.70;;;30.00;48.00;;;;;;5046503;28;20048;-81
2023/06/27 11:18:05;;;;;;;8.35;1.65;;;29.20;53.60;;;;;;5047938;28;20025;-81
2023/06/27 11:20:31;;;;;;;4.63;1.60;;;28.30;60.10;;;;;;5047397;28;20025;-81
2023/06/27 11:23:03;;;;;;;7.13;1.48;;;28.40;62.40;;;;;;5047408;28;20041;-80
2023/06/27 11:25:45;;;;;;;9.13;1.65;;;27.70;63.40;;;;;;5047360;28;20033;-81
2023/06/27 11:28:12;;;;;;;6.90;1.80;;;27.30;63.80;;;;;;5043495;28;20453;-80
2023/06/27 11:30:39;;;;;;;8.68;1.80;;;26.80;66.70;;;;;;5046927;28;20021;-81
2023/06/27 11:33:06;;;;;;;10.27;1.60;;;25.50;75.70;;;;;;5046676;28;20404;-81
2023/06/27 11:35:32;;;;;;;10.93;1.92;;;25.00;84.50;;;;;;5046165;28;20028;-81
2023/06/27 11:37:58;;;;;;;5.32;1.38;;;24.50;90.00;;;;;;5064634;28;20040;-81
2023/06/27 11:40:24;;;;;;;5.82;1.60;;;24.20;93.40;;;;;;5064782;28;20508;-80
2023/06/27 11:42:51;;;;;;;6.32;1.58;;;24.20;94.10;;;;;;5066579;28;20094;-80
2023/06/27 11:45:16;;;;;;;4.82;1.35;;;24.10;92.20;;;;;;5066131;28;20032;-81
2023/06/27 11:47:44;;;;;;;6.70;1.60;;;24.50;95.40;;;;;;5050316;28;20039;-82
2023/06/27 11:50:11;;;;;;;6.38;1.40;;;25.10;94.10;;;;;;5046458;28;20174;-82
2023/06/27 11:52:38;;;;;;;6.53;1.45;;;25.90;81.70;;;;;;5047192;28;20106;-80
2023/06/27 11:55:05;;;;;;;5.45;1.60;;;26.70;80.80;;;;;;5066990;28;20024;-82
2023/06/27 11:57:44;;;;;;;4.50;1.48;;;26.40;75.60;;;;;;5066445;28;20044;-80
2023/06/27 12:00:18;;;;;;;5.63;1.20;;;26.20;74.70;;;;;;5066723;28;20024;-81
2023/06/27 12:02:48;;;;;;;8.75;1.60;;;26.80;78.00;;;;;;5048204;28;20078;-81
2023/06/27 12:05:15;;;;;;;5.93;1.60;;;27.00;73.80;;;;;;5046422;28;20049;-81
2023/06/27 12:07:53;;;;;;;5.72;1.60;;;26.10;73.50;;;;;;5046412;28;20033;-79
2023/06/27 12:10:18;;;;;;;7.07;1.50;;;25.60;75.30;;;;;;5032214;28;20026;-80
2023/06/27 12:12:44;;;;;;;8.80;1.63;;;25.10;82.60;;;;;;5026135;28;20040;-80
2023/06/27 12:15:14;;;;;;;6.85;1.60;;;24.80;84.20;;;;;;5042576;28;20388;-80
2023/06/27 12:17:55;;;;;;;5.13;1.33;;;24.30;90.20;;;;;;5026386;28;20032;-82
2023/06/27 12:20:21;;;;;;;9.88;1.90;;;24.30;91.20;;;;;;5042325;28;20610;-82
2023/06/27 12:22:46;;;;;;;6.15;1.58;;;24.40;94.40;;;;;;5026597;28;20031;-82
2023/06/27 12:25:12;;;;;;;10.02;1.70;;;25.00;97.40;;;;;;5041435;28;20037;-81
2023/06/27 12:27:37;;;;;;;6.78;1.20;;;25.30;87.90;;;;;;5044526;28;20037;-80
2023/06/27 12:30:05;;;;;;;9.70;1.63;;;25.90;87.50;;;;;;5065985;28;20613;-80
2023/06/27 12:32:31;;;;;;;6.95;1.42;;;25.70;82.60;;;;;;5066645;28;20028;-84
2023/06/27 12:34:56;;;;;;;6.85;1.70;;;25.10;90.30;;;;;;5065766;28;20028;-80
2023/06/27 12:37:23;;;;;;;6.82;1.38;;;24.60;89.50;;;;;;5081853;28;20036;-83
2023/06/27 12:39:48;;;;;;;8.95;1.67;;;24.80;93.20;;;;;;5051007;28;20078;-82
2023/06/27 12:42:14;;;;;;;11.57;1.92;;;24.70;88.60;;;;;;5046183;28;20158;-80
2023/06/27 12:44:41;;;;;;;9.82;1.77;;;24.10;89.80;;;;;;5044533;28;20560;-81
2023/06/27 12:47:06;;;;;;;8.25;1.80;;;23.60;93.30;;;;;;5044580;28;20029;-81